Sant Sadurni d'Anoia, Spain
Current Conditions -  °F | °C
As of 3:00 PM on Thursday 18 Dec 2014 (Local Time) from LEBL Reporting Station
Clear Clear  
Wind Chill: 64°   Ceiling: Unl
Heat Index: 64°   Visibility: 6mi
Dew Point: 50°   Wind: 13mph
Humidity: 59%   Direction: 320°NW
Pressure: 30.21"   Gusts: NA
Location:  41.42°N, 1.78°E
Report Text: LEBL 181400Z 32011KT CAVOK 18/10 Q1023 NOSIG
Loading
Personal Weather Stations






























Interactive Weather Map New forecast layout! Learn more

10-Day Weather Forecast

Advertisements
Track Severe Weather on mobile